createdAt,value
2022-12-08T00:00:31.993Z,68.69
2022-12-08T00:01:32.528Z,69.51
2022-12-08T00:02:32.124Z,73.19
2022-12-08T00:03:32.147Z,64.69
2022-12-08T00:04:32.055Z,67.68
2022-12-08T00:05:31.947Z,67.77
2022-12-08T00:06:32.029Z,69.46
2022-12-08T00:07:31.913Z,67.75
2022-12-08T00:08:31.888Z,67.74
2022-12-08T00:09:37.891Z,65.93
2022-12-08T00:10:48.820Z,71.97
2022-12-08T00:11:34.532Z,70.76
2022-12-08T00:12:32.608Z,71.40
2022-12-08T00:13:31.874Z,67.59
2022-12-08T00:14:31.888Z,67.85
2022-12-08T00:15:31.821Z,69.29
2022-12-08T00:16:31.882Z,66.75
2022-12-08T00:17:31.812Z,59.04
2022-12-08T00:18:31.761Z,69.12
2022-12-08T00:19:32.759Z,63.31
2022-12-08T00:20:31.820Z,70.99
2022-12-08T00:21:31.865Z,71.18
2022-12-08T00:22:31.753Z,68.38
2022-12-08T00:23:31.723Z,71.44
2022-12-08T00:24:31.713Z,67.13
2022-12-08T00:25:31.717Z,63.18
2022-12-08T00:26:31.761Z,61.35
2022-12-08T00:27:31.688Z,64.43
2022-12-08T00:28:31.681Z,70.12
2022-12-08T00:29:31.653Z,60.08
2022-12-08T00:30:31.676Z,68.56
2022-12-08T00:31:31.709Z,72.63
2022-12-08T00:32:32.610Z,67.25
2022-12-08T00:33:31.616Z,61.31
2022-12-08T00:34:33.520Z,69.84
2022-12-08T00:35:31.613Z,50.99
2022-12-08T00:36:31.644Z,49.04
2022-12-08T00:37:31.589Z,66.60
2022-12-08T00:38:31.630Z,67.74
2022-12-08T00:39:31.549Z,68.39
2022-12-08T00:40:31.580Z,62.62
2022-12-08T00:41:31.575Z,66.01
2022-12-08T00:42:32.637Z,63.55
2022-12-08T00:43:31.559Z,66.00
2022-12-08T00:44:31.492Z,70.89
2022-12-08T00:45:32.530Z,59.89
2022-12-08T00:46:31.560Z,63.08
2022-12-08T00:47:32.663Z,66.28
2022-12-08T00:48:31.477Z,71.55
2022-12-08T00:49:31.466Z,69.15
2022-12-08T00:50:31.526Z,75.31
2022-12-08T00:51:31.577Z,63.03
2022-12-08T00:52:31.558Z,69.91
2022-12-08T00:53:31.454Z,72.22
2022-12-08T00:54:31.441Z,68.76
2022-12-08T00:55:31.393Z,54.50
2022-12-08T00:56:31.385Z,72.16
2022-12-08T00:57:31.421Z,58.30
2022-12-08T00:58:32.018Z,63.13
2022-12-08T00:59:32.091Z,70.87
2022-12-08T01:00:31.334Z,62.28
2022-12-08T01:01:31.370Z,67.72
2022-12-08T01:02:32.118Z,66.67
2022-12-08T01:03:31.474Z,68.24
2022-12-08T01:04:31.353Z,69.49
2022-12-08T01:05:31.328Z,68.68
2022-12-08T01:06:31.322Z,71.22
2022-12-08T01:07:31.995Z,66.87
2022-12-08T01:08:31.273Z,65.40
2022-12-08T01:09:31.256Z,72.73
2022-12-08T01:10:31.219Z,69.44
2022-12-08T01:11:31.247Z,62.70
2022-12-08T01:12:31.253Z,63.04
2022-12-08T01:13:31.238Z,60.27
2022-12-08T01:14:31.184Z,49.76
2022-12-08T01:15:31.190Z,68.41
2022-12-08T01:16:33.096Z,64.59
2022-12-08T01:17:31.157Z,69.64
2022-12-08T01:18:31.138Z,53.86
2022-12-08T01:19:31.195Z,64.07
2022-12-08T01:20:31.118Z,72.92
2022-12-08T01:21:31.195Z,63.96
2022-12-08T01:22:31.083Z,68.92
2022-12-08T01:23:32.520Z,65.98
2022-12-08T01:24:32.066Z,70.26
2022-12-08T01:25:31.591Z,55.22
2022-12-08T01:26:31.980Z,71.55
2022-12-08T01:27:31.115Z,65.06
2022-12-08T01:28:31.597Z,65.92
2022-12-08T01:29:31.043Z,51.74
2022-12-08T01:30:32.174Z,60.89
2022-12-08T01:31:31.580Z,62.45
2022-12-08T01:32:30.976Z,72.46
2022-12-08T01:33:31.008Z,71.63
2022-12-08T01:34:30.955Z,64.77
2022-12-08T01:35:31.080Z,71.06
2022-12-08T01:36:31.625Z,66.15
2022-12-08T01:37:32.008Z,68.84
2022-12-08T01:38:30.915Z,56.48
2022-12-08T01:39:30.896Z,66.93
2022-12-08T01:40:31.493Z,61.69
2022-12-08T01:41:30.885Z,61.68
2022-12-08T01:42:31.120Z,64.99
2022-12-08T01:43:30.864Z,70.49
2022-12-08T01:44:31.481Z,66.22
2022-12-08T01:45:30.862Z,64.60
2022-12-08T01:46:30.909Z,55.19
2022-12-08T01:47:30.898Z,65.69
2022-12-08T01:48:30.980Z,49.24
2022-12-08T01:49:30.811Z,66.53
2022-12-08T01:50:30.896Z,63.59
2022-12-08T01:51:30.804Z,70.02
2022-12-08T01:52:31.518Z,55.67
2022-12-08T01:53:31.592Z,60.94
2022-12-08T01:54:31.574Z,59.62
2022-12-08T01:55:30.794Z,73.24
2022-12-08T01:56:30.704Z,67.34
2022-12-08T01:57:31.594Z,54.68
2022-12-08T01:58:30.712Z,68.31
2022-12-08T01:59:31.486Z,67.32
2022-12-08T02:00:31.133Z,69.55
2022-12-08T02:01:30.904Z,70.24
2022-12-08T02:02:30.768Z,72.85
2022-12-08T02:03:30.665Z,68.98
2022-12-08T02:04:30.638Z,56.06
2022-12-08T02:05:30.609Z,69.25
2022-12-08T02:06:31.606Z,61.82
2022-12-08T02:07:31.086Z,65.44
2022-12-08T02:08:30.687Z,71.31
2022-12-08T02:09:30.553Z,70.28
2022-12-08T02:10:30.549Z,68.40
2022-12-08T02:11:30.546Z,65.89
2022-12-08T02:12:30.527Z,62.60
2022-12-08T02:13:31.482Z,68.03
2022-12-08T02:14:30.551Z,59.96
2022-12-08T02:15:30.602Z,69.37
2022-12-08T02:16:31.589Z,60.18
2022-12-08T02:17:30.493Z,71.40
2022-12-08T02:18:30.457Z,64.84
2022-12-08T02:19:31.659Z,69.58
2022-12-08T02:20:31.466Z,70.99
2022-12-08T02:21:30.434Z,73.11
2022-12-08T02:22:31.083Z,69.94
2022-12-08T02:23:30.422Z,70.45
2022-12-08T02:24:30.418Z,66.91
2022-12-08T02:25:30.391Z,71.97
2022-12-08T02:26:30.377Z,70.47
2022-12-08T02:27:30.451Z,71.19
2022-12-08T02:28:30.427Z,71.20
2022-12-08T02:29:30.358Z,71.98
2022-12-08T02:30:30.395Z,69.28
2022-12-08T02:31:30.512Z,73.39
2022-12-08T02:32:30.355Z,69.94
2022-12-08T02:33:31.059Z,70.02
2022-12-08T02:34:30.308Z,65.29
2022-12-08T02:35:30.299Z,56.60
2022-12-08T02:36:30.276Z,69.61
2022-12-08T02:37:30.270Z,73.29
2022-12-08T02:38:30.255Z,71.34
2022-12-08T02:39:30.255Z,72.85
2022-12-08T02:40:31.066Z,73.55
2022-12-08T02:41:30.278Z,68.87
2022-12-08T02:42:30.356Z,74.74
2022-12-08T02:43:30.211Z,67.14
2022-12-08T02:44:30.960Z,72.67
2022-12-08T02:45:30.207Z,74.77
2022-12-08T02:46:30.257Z,62.30
2022-12-08T02:47:30.168Z,70.15
2022-12-08T02:48:30.142Z,67.79
2022-12-08T02:49:30.144Z,72.12
2022-12-08T02:50:30.181Z,70.22
2022-12-08T02:51:30.115Z,50.16
2022-12-08T02:52:30.105Z,63.40
2022-12-08T02:53:30.112Z,66.75
2022-12-08T02:54:30.213Z,62.76
2022-12-08T02:55:30.120Z,70.28
2022-12-08T02:56:30.064Z,64.33
2022-12-08T02:57:30.050Z,58.25
2022-12-08T02:58:30.039Z,68.80
2022-12-08T02:59:30.304Z,64.55
2022-12-08T03:00:30.060Z,71.21
2022-12-08T03:01:30.683Z,69.04
2022-12-08T03:02:30.016Z,70.98
2022-12-08T03:03:29.989Z,62.22
2022-12-08T03:04:29.972Z,64.30
2022-12-08T03:05:29.987Z,72.16
2022-12-08T03:06:29.985Z,67.79
2022-12-08T03:07:30.549Z,71.05
2022-12-08T03:08:30.635Z,69.85
2022-12-08T03:09:30.548Z,70.86
2022-12-08T03:10:29.913Z,52.91
2022-12-08T03:11:29.905Z,70.08
2022-12-08T03:12:29.913Z,68.09
2022-12-08T03:13:29.911Z,69.52
2022-12-08T03:14:30.453Z,72.79
2022-12-08T03:15:29.884Z,58.38
2022-12-08T03:16:29.966Z,71.29
2022-12-08T03:17:30.484Z,67.12
2022-12-08T03:18:29.825Z,74.42
2022-12-08T03:19:29.831Z,68.15
2022-12-08T03:20:29.841Z,68.14
2022-12-08T03:21:29.788Z,71.87
2022-12-08T03:22:29.876Z,66.20
2022-12-08T03:23:30.481Z,62.54
2022-12-08T03:24:29.797Z,59.22
2022-12-08T03:25:29.769Z,61.37
2022-12-08T03:26:29.738Z,53.51
2022-12-08T03:27:29.784Z,69.23
2022-12-08T03:28:29.709Z,70.99
2022-12-08T03:29:30.533Z,70.52
2022-12-08T03:30:29.716Z,72.59
2022-12-08T03:31:29.790Z,72.99
2022-12-08T03:32:29.681Z,65.44
2022-12-08T03:33:30.458Z,70.27
2022-12-08T03:34:29.726Z,68.96
2022-12-08T03:35:31.055Z,65.84
2022-12-08T03:36:29.626Z,70.86
2022-12-08T03:37:29.760Z,59.86
2022-12-08T03:38:29.621Z,71.59
2022-12-08T03:39:29.629Z,73.28
2022-12-08T03:40:29.607Z,62.68
2022-12-08T03:41:29.606Z,76.24
2022-12-08T03:42:29.565Z,72.27
2022-12-08T03:43:29.709Z,73.22
2022-12-08T03:44:29.554Z,71.82
2022-12-08T03:45:30.457Z,65.85
2022-12-08T03:48:18.048Z,73.02
2022-12-08T03:49:17.356Z,68.40
2022-12-08T03:50:17.441Z,68.57
2022-12-08T03:51:18.376Z,74.18
2022-12-08T03:52:17.325Z,73.78
2022-12-08T03:53:17.343Z,73.20
2022-12-08T03:54:18.052Z,74.90
2022-12-08T03:55:17.315Z,74.26
2022-12-08T03:56:17.307Z,70.26
2022-12-08T03:57:17.338Z,73.47
2022-12-08T03:58:17.278Z,73.13
2022-12-08T03:59:17.278Z,72.19
2022-12-08T04:00:18.211Z,69.42
2022-12-08T04:01:17.244Z,72.87
2022-12-08T04:02:18.259Z,73.72
2022-12-08T04:03:17.240Z,72.63
2022-12-08T04:04:18.135Z,73.80
2022-12-08T04:05:17.203Z,72.51
2022-12-08T04:06:17.330Z,74.77
2022-12-08T04:07:17.258Z,68.88
2022-12-08T04:08:17.240Z,73.84
2022-12-08T04:09:17.163Z,73.51
2022-12-08T04:10:17.146Z,74.50
2022-12-08T04:11:17.148Z,74.90
2022-12-08T04:12:17.131Z,75.80
2022-12-08T04:13:17.167Z,74.72
2022-12-08T04:14:17.260Z,74.56
2022-12-08T04:15:17.642Z,73.04
2022-12-08T04:16:17.198Z,77.49
2022-12-08T04:17:17.075Z,74.02
2022-12-08T04:18:17.075Z,75.73
2022-12-08T04:19:17.209Z,73.85
2022-12-08T04:20:17.427Z,77.38
2022-12-08T04:21:17.242Z,74.29
2022-12-08T04:22:17.063Z,74.79
2022-12-08T04:23:17.018Z,75.30
2022-12-08T04:24:17.655Z,75.85
2022-12-08T04:25:17.004Z,75.94
2022-12-08T04:26:17.081Z,75.53
2022-12-08T04:27:18.223Z,74.99
2022-12-08T04:28:16.947Z,77.50
2022-12-08T04:29:17.009Z,79.39
2022-12-08T04:30:16.943Z,74.44
2022-12-08T04:31:16.967Z,76.45
2022-12-08T04:32:16.995Z,75.02
2022-12-08T04:33:17.979Z,78.20
2022-12-08T04:34:16.913Z,76.87
2022-12-08T04:35:16.937Z,76.43
2022-12-08T04:36:17.544Z,75.98
2022-12-08T04:37:16.883Z,77.63
2022-12-08T04:38:17.029Z,78.23
2022-12-08T04:39:17.664Z,77.01
2022-12-08T04:40:16.808Z,77.57
2022-12-08T04:41:16.985Z,75.71
2022-12-08T04:42:16.819Z,77.48
2022-12-08T04:43:17.564Z,78.59
2022-12-08T04:44:16.777Z,75.79
2022-12-08T04:45:16.836Z,78.11
2022-12-08T04:46:16.835Z,76.45
2022-12-08T04:47:16.834Z,76.63
2022-12-08T04:48:16.769Z,76.86
2022-12-08T04:49:16.832Z,78.14
2022-12-08T04:50:16.727Z,77.23
2022-12-08T04:51:16.877Z,78.60
2022-12-08T04:52:16.709Z,76.22
2022-12-08T04:53:16.681Z,74.74
2022-12-08T04:54:17.652Z,75.55
2022-12-08T04:55:16.701Z,76.86
2022-12-08T04:56:16.669Z,78.12
2022-12-08T04:57:16.698Z,77.08
2022-12-08T04:58:16.631Z,76.92
2022-12-08T04:59:16.700Z,77.55
2022-12-08T05:00:16.644Z,77.02
2022-12-08T05:01:16.653Z,78.89
2022-12-08T05:02:16.725Z,77.39
2022-12-08T05:03:16.651Z,76.91
2022-12-08T05:04:17.531Z,78.37
2022-12-08T05:05:17.169Z,74.79
2022-12-08T05:06:16.540Z,77.39
2022-12-08T05:07:16.560Z,78.85
2022-12-08T05:08:16.661Z,77.79
2022-12-08T05:09:17.147Z,76.46
2022-12-08T05:10:17.044Z,77.27
2022-12-08T05:11:16.592Z,77.96
2022-12-08T05:12:16.744Z,78.14
2022-12-08T05:13:16.477Z,77.85
2022-12-08T05:14:16.492Z,76.41
2022-12-08T05:15:17.089Z,79.26
2022-12-08T05:16:16.527Z,77.44
2022-12-08T05:17:18.035Z,77.64
2022-12-08T05:18:17.496Z,75.56
2022-12-08T05:19:16.425Z,77.65
2022-12-08T05:20:16.667Z,77.09
2022-12-08T05:21:16.389Z,79.43
2022-12-08T05:22:16.388Z,78.68
2022-12-08T05:23:16.357Z,77.42
2022-12-08T05:24:16.367Z,77.23
2022-12-08T05:25:16.396Z,77.72
2022-12-08T05:26:16.339Z,78.39
2022-12-08T05:27:16.349Z,78.15
2022-12-08T05:28:40.127Z,79.08
2022-12-08T05:29:18.372Z,79.04
2022-12-08T05:30:16.297Z,77.88
2022-12-08T05:31:16.396Z,80.64
2022-12-08T05:32:16.302Z,79.34
2022-12-08T05:33:16.249Z,80.32
2022-12-08T05:34:16.241Z,79.41
2022-12-08T05:35:16.316Z,80.72
2022-12-08T05:36:16.234Z,79.97
2022-12-08T05:37:16.233Z,80.69
2022-12-08T05:38:17.162Z,80.26
2022-12-08T05:39:16.213Z,79.21
2022-12-08T05:40:16.217Z,79.65
2022-12-08T05:41:17.029Z,79.09
2022-12-08T05:42:20.493Z,78.87
2022-12-08T05:43:17.189Z,81.44
2022-12-08T05:44:16.213Z,79.92
2022-12-08T05:45:17.149Z,79.69
2022-12-08T05:46:16.301Z,80.82
2022-12-08T05:47:16.195Z,79.26
2022-12-08T05:48:16.398Z,80.41
2022-12-08T05:49:16.097Z,80.58
2022-12-08T05:50:16.150Z,79.65
2022-12-08T05:51:16.214Z,80.03
2022-12-08T05:52:17.018Z,78.20
2022-12-08T05:53:16.044Z,80.58
2022-12-08T05:54:16.041Z,77.21
2022-12-08T05:55:16.017Z,79.10
2022-12-08T05:56:17.088Z,79.88
2022-12-08T05:57:16.270Z,78.77
2022-12-08T05:58:15.998Z,79.33
2022-12-08T05:59:15.991Z,79.84
2022-12-08T06:00:15.958Z,80.40
2022-12-08T06:01:16.535Z,78.45
2022-12-08T06:02:17.048Z,81.15
2022-12-08T06:03:16.074Z,79.74
2022-12-08T06:04:15.933Z,78.83
2022-12-08T06:05:15.907Z,78.99
2022-12-08T06:06:15.890Z,77.60
2022-12-08T06:07:16.610Z,79.52
2022-12-08T06:08:16.726Z,77.89
2022-12-08T06:09:15.881Z,78.20
2022-12-08T06:10:16.778Z,79.11
2022-12-08T06:11:15.842Z,77.75
2022-12-08T06:12:16.434Z,79.36
2022-12-08T06:13:15.855Z,80.05
2022-12-08T06:14:16.594Z,78.23
2022-12-08T06:15:15.881Z,79.94
2022-12-08T06:16:15.917Z,79.13
2022-12-08T06:17:15.844Z,80.42
2022-12-08T06:18:16.551Z,78.79
2022-12-08T06:19:16.618Z,79.08
2022-12-08T06:20:15.771Z,80.17
2022-12-08T06:21:15.852Z,77.45
2022-12-08T06:22:15.766Z,80.66
2022-12-08T06:23:15.748Z,79.38
2022-12-08T06:24:15.721Z,79.21
2022-12-08T06:25:15.694Z,79.68
2022-12-08T06:26:16.651Z,78.23
2022-12-08T06:27:15.751Z,79.51
2022-12-08T06:28:15.683Z,79.73
2022-12-08T06:29:15.656Z,79.84
2022-12-08T06:30:48.056Z,79.45
2022-12-08T06:31:15.624Z,78.51
2022-12-08T06:32:15.770Z,76.90
2022-12-08T06:33:15.618Z,79.69
2022-12-08T06:34:15.587Z,78.18
2022-12-08T06:35:15.595Z,80.07
2022-12-08T06:36:15.559Z,79.86
2022-12-08T06:37:15.583Z,80.04
2022-12-08T06:38:15.579Z,79.52
2022-12-08T06:39:15.708Z,80.36
2022-12-08T06:40:15.519Z,80.34
2022-12-08T06:41:15.522Z,80.35
2022-12-08T06:42:15.650Z,79.48
2022-12-08T06:43:15.508Z,80.12
2022-12-08T06:44:15.517Z,80.56
2022-12-08T06:45:15.477Z,79.65
2022-12-08T06:46:15.546Z,80.10
2022-12-08T06:47:15.445Z,80.02
2022-12-08T06:48:15.460Z,79.84
2022-12-08T06:49:15.413Z,79.54
2022-12-08T06:50:15.444Z,79.74
2022-12-08T06:51:15.468Z,78.81
2022-12-08T06:52:15.444Z,79.53
2022-12-08T06:53:15.395Z,79.60
2022-12-08T06:54:15.387Z,79.36
2022-12-08T06:55:35.344Z,78.67
2022-12-08T06:56:17.386Z,77.78
2022-12-08T06:57:15.341Z,77.88
2022-12-08T06:58:15.338Z,79.35
2022-12-08T06:59:15.344Z,78.35
2022-12-08T07:00:15.315Z,77.03
2022-12-08T07:01:15.349Z,78.68
2022-12-08T07:02:15.422Z,78.35
2022-12-08T07:03:15.339Z,80.63
2022-12-08T07:04:15.265Z,80.71
2022-12-08T07:05:15.273Z,78.87
2022-12-08T07:06:15.274Z,80.14
2022-12-08T07:07:15.238Z,77.37
2022-12-08T07:08:15.354Z,79.07
2022-12-08T07:09:15.325Z,79.47
2022-12-08T07:10:15.322Z,78.39
2022-12-08T07:11:20.923Z,79.40
2022-12-08T07:12:17.207Z,79.43
2022-12-08T07:13:15.167Z,79.23
2022-12-08T07:14:15.197Z,77.94
2022-12-08T07:15:15.177Z,79.09
2022-12-08T07:16:15.274Z,78.70
2022-12-08T07:17:15.180Z,78.26
2022-12-08T07:18:15.119Z,79.16
2022-12-08T07:19:15.175Z,78.82
2022-12-08T07:20:15.113Z,78.69
2022-12-08T07:21:15.113Z,78.92
2022-12-08T07:22:15.116Z,81.29
2022-12-08T07:23:15.086Z,79.11
2022-12-08T07:24:15.110Z,78.69
2022-12-08T07:25:15.055Z,81.62
2022-12-08T07:26:15.059Z,77.50
2022-12-08T07:27:16.106Z,79.39
2022-12-08T07:28:15.103Z,78.02
2022-12-08T07:29:14.991Z,79.75
2022-12-08T07:30:15.047Z,78.32
2022-12-08T07:31:15.077Z,78.87
2022-12-08T07:32:14.975Z,78.90
2022-12-08T07:33:15.008Z,78.91
2022-12-08T07:34:14.934Z,76.85
2022-12-08T07:35:14.971Z,79.90
2022-12-08T07:36:14.930Z,79.19
2022-12-08T07:37:14.939Z,79.18
2022-12-08T07:38:14.892Z,78.98
2022-12-08T07:39:14.888Z,79.96
2022-12-08T07:40:14.887Z,77.87
2022-12-08T07:41:14.955Z,78.89
2022-12-08T07:42:14.840Z,76.95
2022-12-08T07:43:14.857Z,80.26
2022-12-08T07:44:14.837Z,76.27
2022-12-08T07:45:14.826Z,79.40
2022-12-08T07:46:14.836Z,79.58
2022-12-08T07:47:14.863Z,79.70
2022-12-08T07:48:14.792Z,80.14
2022-12-08T07:49:14.780Z,77.73
2022-12-08T07:50:14.770Z,78.90
2022-12-08T07:51:14.812Z,79.88
2022-12-08T07:52:14.782Z,77.68
2022-12-08T07:53:14.762Z,77.17
2022-12-08T07:54:14.737Z,78.95
2022-12-08T07:55:14.696Z,77.35
2022-12-08T07:56:15.704Z,78.29
2022-12-08T07:57:14.680Z,80.22
2022-12-08T07:58:14.712Z,77.62
2022-12-08T07:59:14.701Z,79.27
2022-12-08T08:00:15.205Z,78.72
2022-12-08T08:01:14.822Z,78.98
2022-12-08T08:02:24.086Z,79.39
2022-12-08T08:03:16.694Z,79.05
2022-12-08T08:04:14.685Z,77.90
2022-12-08T08:05:14.660Z,81.09
2022-12-08T08:06:14.624Z,80.60
2022-12-08T08:07:14.605Z,79.21
2022-12-08T08:08:14.608Z,77.81
2022-12-08T08:09:14.573Z,78.74
2022-12-08T08:10:14.833Z,79.59
2022-12-08T08:11:20.824Z,80.54
2022-12-08T08:12:32.784Z,77.95
2022-12-08T08:13:16.531Z,79.32
2022-12-08T08:14:14.517Z,78.96
2022-12-08T08:15:15.092Z,79.12
2022-12-08T08:16:14.610Z,75.02
2022-12-08T08:17:14.561Z,77.20
2022-12-08T08:18:14.486Z,76.48
2022-12-08T08:19:14.508Z,77.76
2022-12-08T08:20:14.517Z,78.70
2022-12-08T08:21:45.101Z,78.10
2022-12-08T08:22:16.453Z,78.67
2022-12-08T08:23:14.422Z,78.70
2022-12-08T08:24:14.417Z,77.29
2022-12-08T08:25:14.470Z,78.06
2022-12-08T08:26:14.435Z,77.92
2022-12-08T08:27:14.393Z,78.53
2022-12-08T08:28:15.158Z,78.44
2022-12-08T08:29:14.390Z,80.18
2022-12-08T08:30:20.067Z,79.29
2022-12-08T08:31:16.389Z,79.55
2022-12-08T08:32:14.331Z,78.96
2022-12-08T08:33:14.346Z,78.72
2022-12-08T08:34:14.551Z,78.96
2022-12-08T08:35:14.282Z,78.88
2022-12-08T08:36:14.318Z,80.04
2022-12-08T08:37:14.307Z,78.90
2022-12-08T08:38:14.328Z,79.31
2022-12-08T08:39:14.319Z,79.58
2022-12-08T08:40:14.412Z,78.93
2022-12-08T08:41:14.263Z,77.31
2022-12-08T08:42:14.279Z,78.41
2022-12-08T08:43:14.217Z,79.29
2022-12-08T08:44:14.268Z,77.03
2022-12-08T08:45:14.193Z,75.96
2022-12-08T08:46:14.243Z,78.41
2022-12-08T08:47:14.191Z,77.60
2022-12-08T08:48:14.179Z,77.97
2022-12-08T08:49:14.170Z,79.11
2022-12-08T08:50:14.151Z,77.15
2022-12-08T08:51:14.152Z,78.51
2022-12-08T08:52:14.116Z,78.22
2022-12-08T08:53:14.159Z,79.02
2022-12-08T08:54:14.090Z,80.03
2022-12-08T08:55:14.088Z,78.10
2022-12-08T08:56:14.080Z,78.83
2022-12-08T08:57:14.063Z,78.80
2022-12-08T08:58:14.064Z,78.40
2022-12-08T08:59:15.090Z,76.28
2022-12-08T09:00:14.048Z,77.46
2022-12-08T09:01:14.061Z,78.21
2022-12-08T09:02:14.108Z,77.10
2022-12-08T09:03:14.059Z,78.44
2022-12-08T09:04:14.695Z,79.30
2022-12-08T09:05:14.068Z,78.55
2022-12-08T09:06:14.700Z,78.87
2022-12-08T09:07:14.606Z,80.49
2022-12-08T09:08:14.047Z,78.36
2022-12-08T09:09:13.989Z,76.52
2022-12-08T09:10:14.020Z,80.39
2022-12-08T09:11:14.079Z,79.06
2022-12-08T09:12:13.937Z,77.14
2022-12-08T09:13:13.881Z,76.73
2022-12-08T09:14:13.929Z,77.15
2022-12-08T09:15:13.886Z,79.00
2022-12-08T09:16:13.925Z,78.11
2022-12-08T09:17:13.949Z,77.50
2022-12-08T09:18:14.604Z,78.53
2022-12-08T09:19:13.832Z,78.41
2022-12-08T09:20:13.878Z,79.53
2022-12-08T09:21:13.789Z,75.94
2022-12-08T09:22:13.817Z,77.80
2022-12-08T09:23:13.807Z,76.02
2022-12-08T09:24:13.789Z,79.45
2022-12-08T09:25:13.790Z,78.33
2022-12-08T09:26:13.736Z,76.98
2022-12-08T09:27:13.766Z,78.39
2022-12-08T09:28:13.781Z,80.44
2022-12-08T09:29:13.775Z,77.37
2022-12-08T09:30:13.719Z,78.70
2022-12-08T09:31:13.784Z,76.00
2022-12-08T09:32:13.750Z,78.96
2022-12-08T09:33:13.742Z,76.56
2022-12-08T09:34:13.698Z,79.33
2022-12-08T09:35:14.628Z,79.46
2022-12-08T09:36:13.629Z,79.24
2022-12-08T09:37:13.641Z,79.01
2022-12-08T09:38:13.650Z,77.21
2022-12-08T09:39:13.618Z,78.38
2022-12-08T09:40:13.602Z,77.87
2022-12-08T09:41:13.667Z,80.49
2022-12-08T09:42:14.605Z,79.20
2022-12-08T09:43:13.663Z,79.02
2022-12-08T09:44:13.653Z,78.55
2022-12-08T09:45:13.577Z,77.53
2022-12-08T09:46:13.561Z,80.38
2022-12-08T09:47:13.847Z,79.89
2022-12-08T09:48:13.577Z,79.69
2022-12-08T09:49:13.548Z,79.40
2022-12-08T09:50:13.491Z,77.65
2022-12-08T09:51:13.532Z,78.23
2022-12-08T09:52:13.466Z,77.46
2022-12-08T09:53:13.519Z,76.84
2022-12-08T09:54:13.448Z,78.17
2022-12-08T09:55:13.446Z,78.89
2022-12-08T09:56:13.475Z,78.95
2022-12-08T09:57:13.429Z,79.29
2022-12-08T09:58:13.395Z,79.21
2022-12-08T09:59:13.398Z,77.69
2022-12-08T10:00:13.415Z,77.96
2022-12-08T10:01:13.399Z,76.53
2022-12-08T10:02:13.433Z,79.72
2022-12-08T10:03:16.702Z,78.27
2022-12-08T10:04:14.345Z,77.29
2022-12-08T10:05:13.430Z,78.62
2022-12-08T10:06:13.329Z,77.87
2022-12-08T10:07:13.294Z,79.17
2022-12-08T10:08:13.442Z,78.76
2022-12-08T10:09:17.166Z,78.51
2022-12-08T10:10:14.316Z,78.67
2022-12-08T10:11:13.269Z,77.58
2022-12-08T10:12:13.403Z,76.08
2022-12-08T10:13:13.305Z,79.42
2022-12-08T10:14:13.234Z,78.65
2022-12-08T10:15:13.243Z,78.41
2022-12-08T10:16:21.195Z,79.92
2022-12-08T10:17:14.296Z,78.71
2022-12-08T10:18:13.183Z,78.74
2022-12-08T10:19:13.173Z,77.93
2022-12-08T10:20:13.189Z,78.71
2022-12-08T10:21:13.221Z,76.82
2022-12-08T10:22:13.151Z,77.75
2022-12-08T10:23:13.139Z,76.54
2022-12-08T10:24:13.132Z,78.12
2022-12-08T10:25:13.172Z,78.80
2022-12-08T10:26:13.129Z,77.60
2022-12-08T10:27:13.106Z,78.75
2022-12-08T10:28:13.125Z,78.67
2022-12-08T10:29:13.097Z,79.03
2022-12-08T10:30:13.324Z,78.12
2022-12-08T10:31:13.085Z,78.95
2022-12-08T10:32:13.070Z,78.27
2022-12-08T10:33:13.027Z,77.85
2022-12-08T10:34:13.029Z,79.31
2022-12-08T10:35:13.036Z,77.09
2022-12-08T10:36:13.028Z,78.91
2022-12-08T10:37:13.017Z,78.16
2022-12-08T10:38:13.013Z,78.21
2022-12-08T10:39:12.973Z,79.24
2022-12-08T10:40:12.962Z,80.07
2022-12-08T10:41:12.972Z,77.86
2022-12-08T10:42:12.973Z,79.19
2022-12-08T10:43:12.991Z,78.99
2022-12-08T10:44:13.033Z,76.17
2022-12-08T10:45:12.905Z,77.24
2022-12-08T10:46:13.040Z,78.02
2022-12-08T10:47:12.970Z,78.42
2022-12-08T10:48:13.010Z,78.23
2022-12-08T10:49:12.895Z,77.81
2022-12-08T10:50:12.873Z,78.48
2022-12-08T10:51:12.861Z,77.59
2022-12-08T10:52:12.823Z,77.64
2022-12-08T10:53:12.824Z,77.70
2022-12-08T10:54:13.756Z,76.60
2022-12-08T10:55:12.844Z,77.15
2022-12-08T10:56:12.781Z,77.85
2022-12-08T10:57:12.811Z,78.35
2022-12-08T10:58:12.759Z,79.24
2022-12-08T10:59:12.792Z,78.70
2022-12-08T11:00:14.423Z,77.86
2022-12-08T11:01:14.776Z,76.10
2022-12-08T11:02:12.877Z,76.35
2022-12-08T11:03:12.727Z,79.98
2022-12-08T11:04:12.697Z,78.93
2022-12-08T11:05:12.702Z,76.38
2022-12-08T11:06:12.685Z,78.84
2022-12-08T11:07:12.683Z,78.33
2022-12-08T11:08:12.743Z,77.67
2022-12-08T11:09:12.707Z,78.38
2022-12-08T11:10:12.626Z,77.94
2022-12-08T11:11:12.668Z,77.19
2022-12-08T11:12:12.639Z,76.25
2022-12-08T11:13:12.728Z,78.25
2022-12-08T11:14:12.664Z,76.33
2022-12-08T11:15:12.627Z,77.26
2022-12-08T11:16:12.610Z,77.34
2022-12-08T11:17:12.553Z,75.53
2022-12-08T11:18:12.540Z,78.09
2022-12-08T11:19:12.589Z,78.17
2022-12-08T11:20:12.562Z,78.74
2022-12-08T11:21:12.602Z,78.17
2022-12-08T11:22:12.560Z,78.42
2022-12-08T11:23:12.571Z,76.30
2022-12-08T11:24:13.092Z,80.05
2022-12-08T11:25:12.501Z,78.54
2022-12-08T11:26:12.511Z,77.03
2022-12-08T11:27:12.467Z,78.90
2022-12-08T11:28:12.434Z,78.12
2022-12-08T11:29:12.443Z,78.88
2022-12-08T11:30:14.567Z,78.13
2022-12-08T11:31:13.473Z,77.90
2022-12-08T11:32:12.484Z,76.06
2022-12-08T11:33:12.402Z,79.95
2022-12-08T11:34:12.410Z,77.01
2022-12-08T11:35:12.383Z,77.46
2022-12-08T11:36:12.351Z,77.72
2022-12-08T11:37:12.395Z,76.05
2022-12-08T11:38:21.448Z,78.09
2022-12-08T11:39:14.399Z,79.58
2022-12-08T11:40:12.346Z,78.53
2022-12-08T11:41:16.030Z,77.23
2022-12-08T11:42:12.329Z,79.44
2022-12-08T11:43:12.356Z,82.07
2022-12-08T11:44:12.370Z,78.79
2022-12-08T11:45:12.319Z,78.26
2022-12-08T11:46:12.308Z,79.05
2022-12-08T11:47:12.256Z,77.69
2022-12-08T11:48:12.248Z,78.41
2022-12-08T11:49:12.275Z,77.87
2022-12-08T11:50:16.611Z,77.71
2022-12-08T11:51:13.247Z,79.04
2022-12-08T11:52:12.211Z,78.63
2022-12-08T11:53:12.211Z,79.65
2022-12-08T11:54:12.180Z,77.77
2022-12-08T11:55:13.152Z,78.77
2022-12-08T11:56:12.154Z,77.89
2022-12-08T11:57:12.157Z,78.07
2022-12-08T11:58:12.194Z,78.59
2022-12-08T11:59:12.128Z,79.30
2022-12-08T12:00:13.108Z,77.65
2022-12-08T12:01:12.125Z,77.23
2022-12-08T12:02:12.140Z,77.90
2022-12-08T12:03:44.528Z,77.73
2022-12-08T12:04:12.075Z,79.74
2022-12-08T12:05:12.073Z,78.70
2022-12-08T12:06:30.435Z,78.01
2022-12-08T12:07:14.119Z,77.72
2022-12-08T12:08:12.149Z,78.51
2022-12-08T12:09:12.040Z,79.28
2022-12-08T12:10:12.006Z,77.63
2022-12-08T12:11:13.645Z,78.00
2022-12-08T12:12:12.119Z,78.58
2022-12-08T12:13:12.620Z,78.55
2022-12-08T12:14:12.044Z,78.31
2022-12-08T12:15:11.968Z,76.74
2022-12-08T12:16:12.019Z,79.32
2022-12-08T12:17:12.573Z,77.81
2022-12-08T12:18:16.521Z,77.07
2022-12-08T12:19:13.068Z,78.75
2022-12-08T12:20:12.537Z,78.22
2022-12-08T12:21:11.903Z,78.96
2022-12-08T12:22:12.021Z,78.87
2022-12-08T12:23:12.997Z,78.84
2022-12-08T12:24:13.522Z,80.01
2022-12-08T12:25:12.522Z,78.20
2022-12-08T12:26:11.924Z,77.83
2022-12-08T12:27:12.550Z,78.82
2022-12-08T12:28:11.836Z,79.77
2022-12-08T12:29:11.962Z,78.45
2022-12-08T12:30:11.861Z,76.83
2022-12-08T12:31:11.953Z,78.47
2022-12-08T12:32:12.485Z,78.57
2022-12-08T12:33:11.801Z,77.61
2022-12-08T12:34:15.519Z,77.52
2022-12-08T12:35:12.510Z,77.80
2022-12-08T12:36:12.914Z,77.22
2022-12-08T12:37:11.772Z,78.24
2022-12-08T12:38:12.602Z,79.84
2022-12-08T12:39:11.759Z,78.54
2022-12-08T12:40:13.560Z,78.24
2022-12-08T12:41:11.743Z,78.70
2022-12-08T12:42:12.718Z,78.02
2022-12-08T12:43:14.441Z,80.13
2022-12-08T12:44:11.693Z,78.80
2022-12-08T12:45:12.985Z,78.23
2022-12-08T12:46:13.527Z,79.10
2022-12-08T12:47:12.595Z,77.67
2022-12-08T12:48:11.654Z,77.91
2022-12-08T12:49:12.155Z,77.93
2022-12-08T12:50:43.550Z,77.83
2022-12-08T12:51:11.614Z,76.02
2022-12-08T12:52:12.107Z,77.05
2022-12-08T12:53:13.960Z,77.40
2022-12-08T12:54:12.578Z,76.96